CheckWX is a tool to help pilots better visualize weather data.  It is not intended as a substitute for an official pre-flight weather briefing.

18:29:31 UTC

KGRB METAR
Green Bay-Austin Straubel International Airport
Green Bay, Wisconsin, USA
Current

37 mins ago

KGRB 221753Z 17007KT 8SM CLR M03/M08 A3044 RMK AO2 SLP320 T10331083 11028 21167 51002
Observed
Feb-22 @ 17:53 UTC
Wind
  • 170° at 7 KTS
Visibility
8 SM
Flight Rules
VFR
Cloud Levels
  • Clear skies
Temperature
-3°C / 27°F
Dewpoint
-8°C / 18°F
Humidity
69%
Altimeter
30.44" Hg
Pressure
1032 hPa
Previous

2 hours ago

KGRB 221653Z 00000KT 6SM HZ CLR M04/M09 A3044 RMK AO2 SLP320 T10441094
Observed
Feb-22 @ 16:53 UTC
Visibility
6 SM
Flight Rules
VFR
Conditions
Haze
Cloud Levels
  • Clear skies
Temperature
-4°C / 25°F
Dewpoint
-9°C / 16°F
Humidity
69%
Altimeter
30.44" Hg
Pressure
1032 hPa
Previous

3 hours ago

KGRB 221553Z 00000KT 5SM HZ CLR M07/M11 A3044 RMK AO2 SLP320 T10721111
Observed
Feb-22 @ 15:53 UTC
Visibility
5 SM
Flight Rules
MVFR
Conditions
Haze
Cloud Levels
  • Clear skies
Temperature
-7°C / 19°F
Dewpoint
-11°C / 12°F
Humidity
73%
Altimeter
30.44" Hg
Pressure
1032 hPa